Dupont, Colorado
Current Conditions -  °F | °C
As of 11:45 AM on Friday 21 Nov 2014 (Local Time) from KBJC Reporting Station
Scattered Clouds Scattered Clouds  
Wind Chill: 55°   Ceiling: Unl
Heat Index: 55°   Visibility: 30mi
Dew Point: 19°   Wind: 7mph
Humidity: 25%   Direction: 120°ESE
Pressure: 29.93"   Gusts: NA
Location:  39.84°N, 104.91°W
Report Text: KBJC 211845Z 12006KT 30SM FEW080 SCT170 13/M07 A2993
Loading
Personal Weather Stations






























Interactive Weather Map New forecast layout! Learn more

10-Day Weather Forecast

Advertisements
Track Severe Weather on mobile